Time;durP1;ratioP1;P1;durP2;ratioP2;P2;SDS_P1;SDS_P2;PMS_P1;PMS_P2;Temp;Humidity;BMP_temperature;BMP_pressure;BME280_temperature;BME280_humidity;BME280_pressure;Samples;Min_cycle;Max_cycle;Signal;HPM_P1;HPM_P2
2022/04/21 00:00:17;;;;;;;0.70;0.70;;;4.90;99.90;;;;;;4993263;28;20230;-82
2022/04/21 00:02:43;;;;;;;0.80;0.80;;;4.90;99.90;;;;;;4992478;28;20214;-83
2022/04/21 00:05:10;;;;;;;0.70;0.70;;;5.00;99.90;;;;;;4993082;28;20286;-82
2022/04/21 00:07:36;;;;;;;0.70;0.70;;;5.00;99.90;;;;;;4993082;28;20222;-83
2022/04/21 00:10:04;;;;;;;0.75;0.75;;;5.00;99.90;;;;;;4977144;28;20200;-82
2022/04/21 00:12:29;;;;;;;0.68;0.68;;;5.10;99.90;;;;;;4977063;28;20196;-83
2022/04/21 00:14:55;;;;;;;0.70;0.70;;;5.20;99.90;;;;;;4977356;28;20733;-83
2022/04/21 00:17:21;;;;;;;0.77;0.77;;;5.30;99.90;;;;;;4973876;28;20268;-83
2022/04/21 00:19:47;;;;;;;0.70;0.70;;;5.50;99.90;;;;;;4975056;28;20192;-82
2022/04/21 00:24:56;;;;;;;0.70;0.70;;;5.70;99.90;;;;;;4975430;28;20211;-82
2022/04/21 00:27:22;;;;;;;0.70;0.70;;;5.80;99.90;;;;;;4973513;28;20211;-83
2022/04/21 00:29:48;;;;;;;0.70;0.70;;;5.90;99.90;;;;;;4975163;28;20199;-83
2022/04/21 00:32:14;;;;;;;0.70;0.70;;;5.90;99.90;;;;;;4973572;28;20567;-83
2022/04/21 00:34:39;;;;;;;0.65;0.65;;;5.80;99.90;;;;;;4980950;28;20240;-84
2022/04/21 00:37:05;;;;;;;0.70;0.70;;;5.70;99.90;;;;;;4989944;28;20196;-83
2022/04/21 00:39:32;;;;;;;0.70;0.70;;;5.70;99.90;;;;;;4972520;28;20206;-82
2022/04/21 00:42:02;;;;;;;0.80;0.80;;;5.70;99.90;;;;;;4975212;28;20204;-83
2022/04/21 00:44:29;;;;;;;0.75;0.75;;;5.70;99.90;;;;;;4977910;28;20216;-83
2022/04/21 00:46:57;;;;;;;0.68;0.68;;;5.80;99.90;;;;;;4959520;28;20217;-83
2022/04/21 00:49:25;;;;;;;0.80;0.80;;;5.90;99.90;;;;;;4959502;28;20200;-83
2022/04/21 00:51:52;;;;;;;0.80;0.80;;;6.00;99.90;;;;;;4974641;28;20203;-83
2022/04/21 00:54:18;;;;;;;0.77;0.77;;;6.10;99.90;;;;;;4974690;28;20260;-83
2022/04/21 00:56:45;;;;;;;0.70;0.70;;;6.20;99.90;;;;;;4979166;28;20610;-82
2022/04/21 00:59:11;;;;;;;0.70;0.70;;;6.30;99.90;;;;;;4993562;28;20200;-82
2022/04/21 01:04:24;;;;;;;0.60;0.60;;;6.40;99.90;;;;;;4979275;28;20250;-87
2022/04/21 01:06:52;;;;;;;0.70;0.70;;;6.50;99.90;;;;;;4978169;28;20219;-87
2022/04/21 01:09:18;;;;;;;0.70;0.70;;;6.60;99.90;;;;;;4977837;28;20203;-86
2022/04/21 01:11:47;;;;;;;0.70;0.70;;;6.60;99.90;;;;;;4977684;28;20204;-85
2022/04/21 01:14:14;;;;;;;0.70;0.70;;;6.60;99.90;;;;;;4978938;28;20651;-87
2022/04/21 01:16:40;;;;;;;0.80;0.80;;;6.60;99.90;;;;;;4993270;28;20571;-87
2022/04/21 01:19:06;;;;;;;0.70;0.70;;;6.50;99.90;;;;;;4990369;28;20240;-86
2022/04/21 01:21:32;;;;;;;1.00;1.00;;;6.50;99.90;;;;;;4959438;28;20308;-87
2022/04/21 01:23:57;;;;;;;0.70;0.70;;;6.60;99.90;;;;;;4954774;28;20632;-87
2022/04/21 01:26:28;;;;;;;0.77;0.77;;;6.50;99.90;;;;;;4940056;29;20209;-87
2022/04/21 01:28:55;;;;;;;0.70;0.70;;;6.60;99.90;;;;;;4938863;29;20209;-87
2022/04/21 01:31:22;;;;;;;0.60;0.60;;;6.60;99.90;;;;;;4950835;28;20213;-86
2022/04/21 01:33:48;;;;;;;0.70;0.70;;;6.50;99.90;;;;;;4940318;29;20208;-87
2022/04/21 01:36:13;;;;;;;0.80;0.80;;;6.60;99.90;;;;;;4939571;29;20206;-87
2022/04/21 01:41:23;;;;;;;0.70;0.70;;;6.50;99.90;;;;;;4945699;29;20216;-87
2022/04/21 01:43:49;;;;;;;0.68;0.68;;;6.40;99.90;;;;;;4959156;29;20356;-87
2022/04/21 01:46:15;;;;;;;0.75;0.75;;;6.40;99.90;;;;;;4941642;29;20288;-87
2022/04/21 01:48:41;;;;;;;0.65;0.65;;;6.40;99.90;;;;;;4942048;29;20201;-87
2022/04/21 01:51:07;;;;;;;0.95;0.95;;;6.30;99.90;;;;;;4958185;28;20197;-87
2022/04/21 01:53:32;;;;;;;0.70;0.70;;;6.30;99.90;;;;;;4947912;28;20269;-87
2022/04/21 01:55:58;;;;;;;0.90;0.90;;;6.30;99.90;;;;;;4973975;28;20216;-87
2022/04/21 01:58:25;;;;;;;0.70;0.70;;;6.30;99.90;;;;;;4958666;29;20193;-87
2022/04/21 02:00:51;;;;;;;0.80;0.80;;;6.30;99.90;;;;;;4936732;29;20193;-87
2022/04/21 02:03:16;;;;;;;0.70;0.70;;;6.30;99.90;;;;;;4973734;28;20736;-87
2022/04/21 02:05:42;;;;;;;0.65;0.65;;;6.20;99.90;;;;;;4958565;29;20576;-87
2022/04/21 02:08:08;;;;;;;0.68;0.68;;;6.10;99.90;;;;;;4958541;29;20212;-87
2022/04/21 02:10:33;;;;;;;0.80;0.80;;;6.10;99.90;;;;;;4958680;29;20192;-88
2022/04/21 02:12:59;;;;;;;0.73;0.73;;;6.00;99.90;;;;;;4941795;29;20561;-87
2022/04/21 02:15:26;;;;;;;0.70;0.70;;;6.00;99.90;;;;;;4973525;28;20200;-87
2022/04/21 02:17:51;;;;;;;0.70;0.70;;;6.10;99.90;;;;;;4967022;28;20238;-86
2022/04/21 02:20:17;;;;;;;0.70;0.70;;;6.10;99.90;;;;;;4977890;28;20271;-87
2022/04/21 02:22:44;;;;;;;0.70;0.70;;;6.10;99.90;;;;;;4973122;28;20272;-87
2022/04/21 02:25:11;;;;;;;0.80;0.80;;;6.10;99.90;;;;;;4958684;29;20204;-87
2022/04/21 02:27:39;;;;;;;0.75;0.75;;;6.20;99.90;;;;;;4972240;28;20743;-87
2022/04/21 02:30:06;;;;;;;0.70;0.70;;;6.10;99.90;;;;;;4977131;28;20189;-88
2022/04/21 02:32:32;;;;;;;0.73;0.73;;;6.10;99.90;;;;;;4976516;28;20655;-88
2022/04/21 02:34:58;;;;;;;0.70;0.70;;;6.10;99.90;;;;;;4978187;28;20334;-88
2022/04/21 02:37:23;;;;;;;0.70;0.70;;;6.10;99.90;;;;;;4976124;28;20211;-86
2022/04/21 02:39:49;;;;;;;0.70;0.70;;;6.00;99.90;;;;;;4976334;28;20239;-86
2022/04/21 02:42:16;;;;;;;0.70;0.70;;;5.90;99.90;;;;;;4978036;28;20207;-87
2022/04/21 02:44:42;;;;;;;0.85;0.85;;;5.90;99.90;;;;;;4976399;28;20707;-88
2022/04/21 02:47:08;;;;;;;0.70;0.70;;;5.80;99.90;;;;;;4960413;28;20312;-85
2022/04/21 02:49:35;;;;;;;0.70;0.70;;;5.70;99.90;;;;;;4977502;28;20622;-84
2022/04/21 02:52:07;;;;;;;1.10;1.00;;;5.60;99.90;;;;;;4976128;28;20582;-84
2022/04/21 02:57:20;;;;;;;0.70;0.70;;;5.70;99.90;;;;;;4958092;29;20566;-86
2022/04/21 02:59:51;;;;;;;1.75;1.15;;;5.70;99.90;;;;;;4956705;29;20645;-86
2022/04/21 03:02:18;;;;;;;0.80;0.80;;;5.70;99.90;;;;;;4974989;28;20563;-86
2022/04/21 03:04:43;;;;;;;0.70;0.70;;;5.60;99.90;;;;;;4976818;28;20209;-87
2022/04/21 03:07:09;;;;;;;0.95;0.95;;;5.60;99.90;;;;;;4959698;28;20706;-87
2022/04/21 03:09:35;;;;;;;0.80;0.80;;;5.60;99.90;;;;;;4977235;28;20192;-87
2022/04/21 03:12:02;;;;;;;0.70;0.70;;;5.50;99.90;;;;;;4975570;28;20204;-86
2022/04/21 03:14:28;;;;;;;0.70;0.70;;;5.50;99.90;;;;;;4959526;28;20196;-86
2022/04/21 03:16:54;;;;;;;0.70;0.70;;;5.60;99.90;;;;;;4975517;28;20204;-87
2022/04/21 03:19:19;;;;;;;0.70;0.70;;;5.60;99.90;;;;;;4959319;28;20211;-87
2022/04/21 03:24:30;;;;;;;0.70;0.70;;;5.50;99.90;;;;;;4957390;29;20323;-87
2022/04/21 03:26:56;;;;;;;0.98;0.93;;;5.40;99.90;;;;;;4957333;28;20620;-87
2022/04/21 03:29:21;;;;;;;0.75;0.75;;;5.50;99.90;;;;;;4957532;29;20193;-86
2022/04/21 03:31:48;;;;;;;0.70;0.70;;;5.50;99.90;;;;;;4957346;29;20216;-87
2022/04/21 03:34:16;;;;;;;0.80;0.80;;;5.40;99.90;;;;;;4973266;28;20579;-87
2022/04/21 03:36:47;;;;;;;0.70;0.70;;;5.40;99.90;;;;;;4995697;28;20713;-87
2022/04/21 03:39:14;;;;;;;0.70;0.70;;;5.40;99.90;;;;;;4994724;28;20207;-87
2022/04/21 03:41:39;;;;;;;0.77;0.77;;;5.40;99.90;;;;;;4996127;28;20211;-87
2022/04/21 03:44:05;;;;;;;0.70;0.70;;;5.40;99.90;;;;;;4994356;28;20282;-87
2022/04/21 03:46:31;;;;;;;0.77;0.77;;;5.40;99.90;;;;;;4981225;28;20204;-87
2022/04/21 03:48:58;;;;;;;0.70;0.70;;;5.40;99.90;;;;;;4975531;28;20196;-87
2022/04/21 03:51:25;;;;;;;0.70;0.70;;;5.40;99.90;;;;;;4975736;28;20242;-87
2022/04/21 03:53:51;;;;;;;0.85;0.85;;;5.40;99.90;;;;;;4991202;28;20204;-87
2022/04/21 03:56:17;;;;;;;0.90;0.90;;;5.30;99.90;;;;;;4976023;28;20682;-86
2022/04/21 03:58:43;;;;;;;0.70;0.70;;;5.30;99.90;;;;;;4975835;28;20200;-86
2022/04/21 04:01:08;;;;;;;0.70;0.70;;;5.20;99.90;;;;;;4975671;28;20192;-87
2022/04/21 04:03:34;;;;;;;0.68;0.68;;;5.10;99.90;;;;;;4975809;28;20196;-87
2022/04/21 04:06:00;;;;;;;0.65;0.65;;;5.20;99.90;;;;;;4990661;28;20200;-87
2022/04/21 04:11:10;;;;;;;0.90;0.90;;;5.20;99.90;;;;;;4976183;28;20689;-86
2022/04/21 04:13:36;;;;;;;0.80;0.80;;;5.20;99.90;;;;;;4976026;28;20671;-87
2022/04/21 04:16:01;;;;;;;0.70;0.70;;;5.20;99.90;;;;;;4975463;28;20188;-86
2022/04/21 04:18:29;;;;;;;0.70;0.70;;;5.30;99.90;;;;;;4975115;28;20227;-87
2022/04/21 04:20:55;;;;;;;0.70;0.70;;;5.40;99.90;;;;;;4976075;28;20276;-86
2022/04/21 04:23:21;;;;;;;0.80;0.80;;;5.50;99.90;;;;;;4975298;28;20224;-86
2022/04/21 04:25:47;;;;;;;0.70;0.70;;;5.60;99.90;;;;;;4975728;28;20571;-84
2022/04/21 04:28:13;;;;;;;0.68;0.68;;;5.80;99.90;;;;;;4957784;28;20222;-87
2022/04/21 04:30:39;;;;;;;0.70;0.70;;;5.80;99.90;;;;;;4975449;28;20215;-87
2022/04/21 04:33:09;;;;;;;0.80;0.80;;;5.90;99.90;;;;;;4975477;28;20251;-86
2022/04/21 04:35:34;;;;;;;0.70;0.70;;;6.00;99.90;;;;;;4990066;28;20196;-87
2022/04/21 04:38:00;;;;;;;0.80;0.80;;;6.00;99.90;;;;;;4974477;28;20208;-86
2022/04/21 04:40:26;;;;;;;0.70;0.70;;;6.10;99.90;;;;;;4990500;28;20200;-87
2022/04/21 04:42:55;;;;;;;0.90;0.90;;;6.20;99.90;;;;;;4979949;28;20683;-87
2022/04/21 04:48:06;;;;;;;0.80;0.80;;;6.20;99.90;;;;;;4975694;28;20206;-87
2022/04/21 04:50:32;;;;;;;0.70;0.70;;;6.30;99.90;;;;;;4975007;28;20589;-86
2022/04/21 04:52:59;;;;;;;0.80;0.80;;;6.30;99.90;;;;;;4958090;28;20233;-86
2022/04/21 04:55:25;;;;;;;0.70;0.70;;;6.40;99.90;;;;;;4957597;28;20291;-86
2022/04/21 04:57:51;;;;;;;1.27;1.20;;;6.40;99.90;;;;;;4957968;28;20227;-87
2022/04/21 05:00:18;;;;;;;1.10;1.00;;;6.50;99.90;;;;;;4957907;28;20200;-85
2022/04/21 05:02:44;;;;;;;0.70;0.70;;;6.70;99.90;;;;;;4975427;28;20196;-85
2022/04/21 05:05:11;;;;;;;0.70;0.70;;;6.70;99.90;;;;;;4973682;28;20434;-87
2022/04/21 05:07:39;;;;;;;0.70;0.70;;;6.80;99.90;;;;;;4956242;28;20223;-87
2022/04/21 05:10:07;;;;;;;0.73;0.73;;;6.90;99.90;;;;;;4974491;28;20184;-86
2022/04/21 05:12:32;;;;;;;0.70;0.70;;;7.10;99.90;;;;;;4973546;28;20255;-86
2022/04/21 05:14:58;;;;;;;0.90;0.90;;;7.10;99.90;;;;;;4974690;28;20200;-87
2022/04/21 05:17:25;;;;;;;1.00;1.00;;;7.20;99.90;;;;;;4974707;28;20264;-87
2022/04/21 05:19:52;;;;;;;1.17;0.90;;;7.30;99.90;;;;;;4973299;28;20204;-88
2022/04/21 05:22:18;;;;;;;0.80;0.80;;;7.40;99.90;;;;;;4974730;28;20652;-86
2022/04/21 05:24:51;;;;;;;0.70;0.70;;;7.60;99.90;;;;;;4973814;28;20622;-86
2022/04/21 05:27:17;;;;;;;0.60;0.60;;;7.70;99.90;;;;;;4973578;28;20212;-86
2022/04/21 05:32:30;;;;;;;0.70;0.70;;;8.00;99.90;;;;;;4978565;28;20219;-87
2022/04/21 05:34:57;;;;;;;0.80;0.80;;;8.10;99.90;;;;;;4978169;28;20204;-86
2022/04/21 05:37:23;;;;;;;0.60;0.60;;;8.30;99.90;;;;;;4977528;28;20193;-85
2022/04/21 05:39:49;;;;;;;1.10;1.10;;;8.40;99.90;;;;;;4993057;28;20201;-88
2022/04/21 05:42:22;;;;;;;0.70;0.70;;;8.60;99.90;;;;;;4978328;28;20287;-87
2022/04/21 05:44:50;;;;;;;0.60;0.60;;;8.80;99.90;;;;;;4961448;28;20201;-88
2022/04/21 05:47:16;;;;;;;0.60;0.60;;;8.90;99.90;;;;;;4960939;28;20691;-87
2022/04/21 05:49:42;;;;;;;0.70;0.70;;;9.10;99.90;;;;;;4960168;28;20270;-86
2022/04/21 05:52:08;;;;;;;0.60;0.60;;;9.20;99.90;;;;;;4960220;28;20664;-87
2022/04/21 05:54:34;;;;;;;0.60;0.60;;;9.30;99.90;;;;;;4976694;28;20207;-87
2022/04/21 05:57:00;;;;;;;0.60;0.60;;;9.40;99.90;;;;;;4978802;28;20196;-87
2022/04/21 05:59:26;;;;;;;0.95;0.95;;;9.40;99.90;;;;;;4978252;28;20610;-89
2022/04/21 06:01:52;;;;;;;1.02;1.02;;;9.40;99.90;;;;;;4960999;28;20231;-87
2022/04/21 06:04:21;;;;;;;0.60;0.60;;;9.60;99.90;;;;;;4960706;28;20200;-87
2022/04/21 06:06:47;;;;;;;0.65;0.65;;;9.60;99.90;;;;;;4960386;28;20691;-87
2022/04/21 06:09:12;;;;;;;0.80;0.80;;;9.80;99.90;;;;;;4951142;29;20197;-87
2022/04/21 06:11:38;;;;;;;0.60;0.60;;;9.90;99.90;;;;;;4965402;28;20623;-88
2022/04/21 06:14:04;;;;;;;0.80;0.80;;;9.90;99.90;;;;;;4976477;28;20298;-88
2022/04/21 06:16:29;;;;;;;0.63;0.63;;;9.90;99.90;;;;;;4977511;28;20203;-87
2022/04/21 06:18:55;;;;;;;0.93;0.85;;;10.00;99.90;;;;;;4976433;28;20331;-87
2022/04/21 06:21:21;;;;;;;0.68;0.68;;;10.00;99.90;;;;;;4959851;28;20204;-89
2022/04/21 06:23:46;;;;;;;0.57;0.57;;;10.10;99.90;;;;;;4976547;28;20196;-88
2022/04/21 06:26:12;;;;;;;0.57;0.57;;;10.00;99.90;;;;;;4976525;28;20203;-86
2022/04/21 06:28:38;;;;;;;0.50;0.50;;;9.90;99.90;;;;;;4976648;28;20279;-88
2022/04/21 06:31:03;;;;;;;0.60;0.60;;;9.80;99.90;;;;;;4976265;28;20204;-88
2022/04/21 06:33:32;;;;;;;0.60;0.60;;;9.80;99.90;;;;;;4977256;28;20223;-88
2022/04/21 06:35:59;;;;;;;0.60;0.60;;;9.90;99.90;;;;;;4977447;28;20207;-87
2022/04/21 06:38:25;;;;;;;0.60;0.60;;;9.90;99.90;;;;;;4976472;28;20216;-87
2022/04/21 06:40:51;;;;;;;0.60;0.60;;;9.90;99.90;;;;;;4959088;28;20664;-87
2022/04/21 06:48:48;;;;;;;2.67;1.17;;;10.00;99.90;;;;;;4977379;28;20207;-87
2022/04/21 06:51:15;;;;;;;0.77;0.77;;;10.20;99.90;;;;;;4975869;28;20723;-86
2022/04/21 06:53:42;;;;;;;0.60;0.60;;;10.40;99.90;;;;;;4976688;28;20659;-87
2022/04/21 06:56:08;;;;;;;0.60;0.60;;;10.60;99.90;;;;;;4959424;28;20196;-87
2022/04/21 06:58:34;;;;;;;0.70;0.70;;;10.90;99.90;;;;;;4976843;28;20216;-88
2022/04/21 07:01:01;;;;;;;0.60;0.60;;;11.10;99.90;;;;;;4959694;28;20200;-87
2022/04/21 07:03:27;;;;;;;0.60;0.60;;;11.40;99.90;;;;;;4976442;28;20201;-87
2022/04/21 07:05:55;;;;;;;0.60;0.60;;;11.60;99.90;;;;;;4974623;28;20715;-87
2022/04/21 07:08:22;;;;;;;0.73;0.73;;;11.80;99.90;;;;;;4958321;28;20236;-86
2022/04/21 07:10:47;;;;;;;0.60;0.60;;;12.00;99.90;;;;;;4976068;28;20200;-88
2022/04/21 07:13:13;;;;;;;0.57;0.57;;;12.20;99.90;;;;;;4996484;28;20202;-87
2022/04/21 07:15:42;;;;;;;0.50;0.50;;;12.30;99.90;;;;;;4978555;28;20286;-87
2022/04/21 07:18:10;;;;;;;0.50;0.50;;;12.40;99.90;;;;;;4978642;28;20235;-87
2022/04/21 07:20:36;;;;;;;0.68;0.68;;;12.40;99.90;;;;;;4996029;28;20532;-87
2022/04/21 07:23:02;;;;;;;0.50;0.50;;;12.50;99.90;;;;;;4985102;28;20231;-88
2022/04/21 07:25:28;;;;;;;0.60;0.60;;;12.50;99.90;;;;;;4976398;28;20200;-88
2022/04/21 07:27:54;;;;;;;0.60;0.60;;;12.60;99.90;;;;;;4959197;28;20214;-87
2022/04/21 07:30:20;;;;;;;0.50;0.50;;;12.70;99.90;;;;;;4972414;28;20275;-87
2022/04/21 07:32:46;;;;;;;0.50;0.50;;;12.90;99.90;;;;;;4971863;28;20192;-87
2022/04/21 07:35:12;;;;;;;0.80;0.80;;;13.00;99.90;;;;;;4976065;28;20664;-87
2022/04/21 07:37:38;;;;;;;0.75;0.75;;;13.10;99.90;;;;;;4958905;28;21106;-88
2022/04/21 07:40:05;;;;;;;0.50;0.50;;;13.20;99.90;;;;;;4958454;28;20219;-89
2022/04/21 07:42:32;;;;;;;0.50;0.50;;;13.50;99.90;;;;;;4975801;28;20211;-87
2022/04/21 07:44:59;;;;;;;0.50;0.50;;;13.70;99.90;;;;;;4976785;28;20224;-88
2022/04/21 07:47:25;;;;;;;0.50;0.50;;;13.80;99.90;;;;;;4971431;28;20219;-87
2022/04/21 07:49:50;;;;;;;0.47;0.47;;;14.00;99.90;;;;;;4972495;28;20204;-88
2022/04/21 07:55:23;;;;;;;0.40;0.40;;;14.20;99.90;;;;;;4976223;28;20223;-88
2022/04/21 07:57:51;;;;;;;0.40;0.40;;;14.70;99.90;;;;;;4958955;28;20204;-88
2022/04/21 08:00:18;;;;;;;0.50;0.50;;;15.10;99.90;;;;;;4958349;28;20204;-88
2022/04/21 08:02:45;;;;;;;0.68;0.68;;;15.20;99.90;;;;;;4958439;28;20204;-89
2022/04/21 08:05:13;;;;;;;0.40;0.40;;;15.20;99.90;;;;;;4958695;28;20208;-87
2022/04/21 08:07:39;;;;;;;0.45;0.45;;;15.60;99.90;;;;;;4975898;28;20295;-88
2022/04/21 08:10:07;;;;;;;0.60;0.60;;;15.80;99.90;;;;;;4974578;28;20294;-89
2022/04/21 08:12:43;;;;;;;0.35;0.35;;;16.10;99.90;;;;;;4974298;28;20196;-88
2022/04/21 08:15:14;;;;;;;0.47;0.47;;;16.20;99.90;;;;;;4958390;28;20192;-89
2022/04/21 08:17:40;;;;;;;0.35;0.35;;;16.30;99.90;;;;;;4958120;28;20249;-89
2022/04/21 08:20:07;;;;;;;0.52;0.52;;;16.30;99.90;;;;;;4974363;28;20234;-89
2022/04/21 08:22:33;;;;;;;0.50;0.50;;;16.50;99.90;;;;;;4970689;28;20245;-89
2022/04/21 08:33:11;;;;;;;0.30;0.30;;;17.10;99.70;;;;;;4975951;28;20231;-88
2022/04/21 08:35:37;;;;;;;0.30;0.30;;;17.40;99.80;;;;;;4957874;28;20196;-89
2022/04/21 08:38:03;;;;;;;0.40;0.40;;;17.30;98.10;;;;;;4965759;28;20211;-90
2022/04/21 08:40:31;;;;;;;0.68;0.68;;;17.20;97.60;;;;;;4977692;28;20203;-89
2022/04/21 08:42:58;;;;;;;0.30;0.30;;;17.10;97.80;;;;;;4976982;28;20211;-90
2022/04/21 08:45:25;;;;;;;0.35;0.35;;;16.90;97.40;;;;;;4977714;28;20671;-89
2022/04/21 08:47:58;;;;;;;0.40;0.40;;;16.70;98.20;;;;;;4977847;28;20679;-89
2022/04/21 08:50:24;;;;;;;0.77;0.77;;;16.80;97.30;;;;;;4994445;28;20759;-89
2022/04/21 08:52:49;;;;;;;0.30;0.30;;;16.90;97.30;;;;;;4977493;28;20231;-89
2022/04/21 08:55:16;;;;;;;0.30;0.30;;;17.20;96.40;;;;;;4977257;28;20203;-88
2022/04/21 08:57:42;;;;;;;0.30;0.30;;;17.20;94.80;;;;;;4977229;28;20210;-89
2022/04/21 09:00:08;;;;;;;0.30;0.30;;;17.30;94.70;;;;;;4971522;28;20287;-89
2022/04/21 09:02:36;;;;;;;0.45;0.45;;;17.60;94.80;;;;;;4973593;28;20199;-90
2022/04/21 09:05:03;;;;;;;0.30;0.30;;;18.00;93.80;;;;;;4975674;28;20651;-88
2022/04/21 09:07:29;;;;;;;0.60;0.60;;;18.20;92.30;;;;;;4978150;28;20219;-88
2022/04/21 09:10:05;;;;;;;0.40;0.40;;;18.20;92.30;;;;;;4978097;28;20229;-88
2022/04/21 09:12:32;;;;;;;0.73;0.60;;;18.00;92.20;;;;;;4977922;28;20238;-89
2022/04/21 09:15:03;;;;;;;1.30;1.05;;;18.00;90.90;;;;;;4977873;28;20197;-88
2022/04/21 09:17:29;;;;;;;0.40;0.40;;;18.30;90.60;;;;;;4978750;28;20238;-93
2022/04/21 09:20:00;;;;;;;1.70;0.63;;;18.40;91.00;;;;;;4978338;28;20200;-90
2022/04/21 09:22:30;;;;;;;0.20;0.20;;;18.70;91.30;;;;;;4960346;28;20208;-88
2022/04/21 09:24:58;;;;;;;0.20;0.20;;;18.90;91.50;;;;;;4977233;28;20664;-89
2022/04/21 09:27:24;;;;;;;0.68;0.55;;;19.30;90.50;;;;;;4978272;28;20208;-89
2022/04/21 09:29:50;;;;;;;0.50;0.50;;;19.20;90.60;;;;;;4978736;28;20203;-89
2022/04/21 09:32:18;;;;;;;1.08;0.73;;;19.20;90.10;;;;;;4978902;28;20291;-89
2022/04/21 09:34:50;;;;;;;0.43;0.43;;;19.40;89.50;;;;;;4962149;28;20232;-89
2022/04/21 09:37:20;;;;;;;0.30;0.30;;;19.50;86.50;;;;;;4961985;28;20204;-90
2022/04/21 09:39:50;;;;;;;0.68;0.50;;;19.80;84.20;;;;;;4980582;28;20188;-90
2022/04/21 09:42:42;;;;;;;0.20;0.20;;;19.50;83.00;;;;;;4979069;28;20623;-87
2022/04/21 09:47:54;;;;;;;0.52;0.47;;;19.30;82.50;;;;;;4978764;28;20267;-90
2022/04/21 09:50:23;;;;;;;0.55;0.30;;;19.50;83.60;;;;;;4961971;28;20596;-87
2022/04/21 09:52:54;;;;;;;1.08;0.85;;;20.10;82.60;;;;;;4978873;28;20192;-88
2022/04/21 09:55:24;;;;;;;0.28;0.28;;;20.10;80.90;;;;;;4961354;28;20200;-87
2022/04/21 09:57:52;;;;;;;0.20;0.20;;;20.20;79.50;;;;;;4961345;28;20564;-88
2022/04/21 10:00:21;;;;;;;1.05;0.95;;;20.40;77.70;;;;;;4978512;28;20610;-87
2022/04/21 10:02:49;;;;;;;0.40;0.40;;;20.30;76.20;;;;;;4977383;28;20204;-88
2022/04/21 10:05:16;;;;;;;0.20;0.20;;;20.40;79.20;;;;;;4978580;28;20196;-88
2022/04/21 10:07:44;;;;;;;0.30;0.30;;;20.10;77.80;;;;;;4978322;28;20270;-89
2022/04/21 10:10:10;;;;;;;0.20;0.20;;;20.20;76.30;;;;;;4977706;28;20204;-89
2022/04/21 10:12:36;;;;;;;0.30;0.30;;;19.60;77.40;;;;;;4978790;28;20200;-89
2022/04/21 10:15:04;;;;;;;0.20;0.20;;;20.00;78.70;;;;;;4976852;28;20192;-88
2022/04/21 10:17:29;;;;;;;0.30;0.30;;;20.40;76.50;;;;;;4976578;28;20224;-88
2022/04/21 10:19:55;;;;;;;0.25;0.25;;;20.30;75.80;;;;;;4969791;28;20204;-88
2022/04/21 10:22:22;;;;;;;0.20;0.20;;;20.60;77.10;;;;;;4977721;28;20215;-89
2022/04/21 10:24:48;;;;;;;0.20;0.20;;;20.70;74.30;;;;;;4980392;28;20802;-89
2022/04/21 10:27:37;;;;;;;0.20;0.20;;;20.70;75.50;;;;;;4996407;28;20586;-88
2022/04/21 10:30:11;;;;;;;0.20;0.20;;;20.90;71.00;;;;;;4991651;28;20215;-89
2022/04/21 10:32:55;;;;;;;0.20;0.20;;;21.00;73.60;;;;;;4979944;28;20225;-89
2022/04/21 10:35:40;;;;;;;0.20;0.20;;;21.20;71.90;;;;;;4992753;28;20227;-87
2022/04/21 10:38:18;;;;;;;0.22;0.22;;;21.00;70.70;;;;;;4995014;28;20206;-88
2022/04/21 10:41:06;;;;;;;0.20;0.20;;;20.70;70.80;;;;;;4979766;28;20199;-88
2022/04/21 10:43:52;;;;;;;0.20;0.20;;;21.50;70.80;;;;;;4980273;28;20704;-87
2022/04/21 10:46:29;;;;;;;0.40;0.40;;;21.40;71.00;;;;;;4975703;28;20211;-89
2022/04/21 10:48:55;;;;;;;0.20;0.20;;;21.00;71.60;;;;;;4993015;28;20562;-88
2022/04/21 10:57:16;;;;;;;0.20;0.20;;;21.30;69.80;;;;;;4958853;29;20304;-89
2022/04/21 11:00:08;;;;;;;0.30;0.28;;;21.30;68.80;;;;;;4956546;29;20664;-88
2022/04/21 11:03:05;;;;;;;0.20;0.20;;;21.60;68.60;;;;;;4956539;29;20200;-88
2022/04/21 11:05:38;;;;;;;0.20;0.20;;;21.60;68.50;;;;;;4937345;29;20209;-88
2022/04/21 11:08:11;;;;;;;0.20;0.20;;;21.60;70.10;;;;;;4957085;29;20680;-89
2022/04/21 11:10:37;;;;;;;0.20;0.20;;;21.90;70.20;;;;;;4957636;29;20196;-88
2022/04/21 11:13:04;;;;;;;0.20;0.20;;;21.50;68.70;;;;;;4956693;28;20568;-87
2022/04/21 11:15:45;;;;;;;0.40;0.40;;;21.50;69.90;;;;;;4961270;28;20204;-87
2022/04/21 11:18:12;;;;;;;0.30;0.30;;;21.80;68.80;;;;;;4980955;28;20258;-87
2022/04/21 11:20:43;;;;;;;0.20;0.20;;;22.10;66.90;;;;;;4978116;28;20203;-91
2022/04/21 11:23:26;;;;;;;0.20;0.20;;;22.30;66.10;;;;;;4976609;28;20660;-90
2022/04/21 11:26:04;;;;;;;0.38;0.38;;;22.60;65.20;;;;;;4978462;28;20200;-88
2022/04/21 11:28:30;;;;;;;0.30;0.30;;;22.40;66.80;;;;;;4976308;28;20259;-89
2022/04/21 11:30:57;;;;;;;0.28;0.28;;;22.20;66.30;;;;;;4959072;28;20331;-89
2022/04/21 11:33:23;;;;;;;0.47;0.47;;;22.20;66.10;;;;;;4974946;28;20671;-88
2022/04/21 11:35:49;;;;;;;0.20;0.20;;;21.70;68.40;;;;;;4976827;28;20224;-88
2022/04/21 11:38:14;;;;;;;0.10;0.10;;;22.00;67.00;;;;;;4984212;28;20274;-89
2022/04/21 11:40:40;;;;;;;0.20;0.20;;;22.10;64.60;;;;;;4994667;28;20199;-89
2022/04/21 11:43:17;;;;;;;0.20;0.20;;;22.10;66.70;;;;;;4994518;28;20255;-88
2022/04/21 11:46:01;;;;;;;0.40;0.28;;;22.20;64.60;;;;;;4994271;28;20287;-88
2022/04/21 11:48:38;;;;;;;0.30;0.30;;;21.80;66.80;;;;;;4991344;28;20281;-88
2022/04/21 11:51:04;;;;;;;0.30;0.30;;;21.60;66.50;;;;;;4956898;29;20291;-88
2022/04/21 11:53:36;;;;;;;0.20;0.20;;;21.40;68.40;;;;;;4956698;28;20201;-88
2022/04/21 11:56:05;;;;;;;4.85;0.55;;;21.60;65.90;;;;;;4939832;29;20208;-89
2022/04/21 11:58:38;;;;;;;0.22;0.22;;;21.90;66.10;;;;;;4956765;28;20197;-88
2022/04/21 12:06:56;;;;;;;0.98;0.32;;;22.30;64.80;;;;;;4957182;28;20216;-88
2022/04/21 12:09:33;;;;;;;2.10;0.65;;;22.40;64.50;;;;;;4939588;28;20201;-86
2022/04/21 12:12:00;;;;;;;0.20;0.20;;;22.30;63.20;;;;;;4953225;28;20670;-87
2022/04/21 12:14:27;;;;;;;0.20;0.20;;;22.10;63.40;;;;;;4990947;28;20830;-87
2022/04/21 12:17:01;;;;;;;0.70;0.55;;;21.90;64.10;;;;;;4974379;28;20203;-86
2022/04/21 12:19:41;;;;;;;0.90;0.75;;;21.80;66.00;;;;;;4975658;28;20675;-87
2022/04/21 12:22:12;;;;;;;0.50;0.45;;;21.80;64.50;;;;;;4970365;28;20250;-88
2022/04/21 12:24:39;;;;;;;1.25;0.73;;;21.70;65.90;;;;;;4975725;28;20326;-88
2022/04/21 12:27:12;;;;;;;0.20;0.20;;;21.90;65.10;;;;;;4974652;28;20613;-89
2022/04/21 12:29:52;;;;;;;2.10;0.40;;;21.80;64.50;;;;;;4974585;28;20659;-89
2022/04/21 12:32:30;;;;;;;0.20;0.20;;;22.00;65.20;;;;;;4974769;28;20338;-86
2022/04/21 12:34:58;;;;;;;0.20;0.20;;;22.00;64.00;;;;;;4974733;28;20282;-87
2022/04/21 12:37:35;;;;;;;0.22;0.22;;;22.40;63.00;;;;;;4974603;28;20747;-88
2022/04/21 12:40:04;;;;;;;0.40;0.40;;;22.30;63.90;;;;;;4972791;28;20667;-88
2022/04/21 12:42:30;;;;;;;0.20;0.20;;;21.70;64.00;;;;;;4974177;28;20687;-88
2022/04/21 12:44:57;;;;;;;0.13;0.13;;;21.80;64.80;;;;;;4974795;28;20561;-89
2022/04/21 12:47:23;;;;;;;0.20;0.20;;;22.60;63.60;;;;;;4974102;28;20208;-88
2022/04/21 12:50:07;;;;;;;0.15;0.15;;;22.40;60.40;;;;;;4973212;28;20200;-87
2022/04/21 12:52:34;;;;;;;1.85;0.60;;;22.60;62.40;;;;;;4974088;28;20196;-88
2022/04/21 12:55:02;;;;;;;0.20;0.20;;;23.10;60.40;;;;;;4973954;28;20298;-86
2022/04/21 12:57:28;;;;;;;0.20;0.20;;;23.00;59.30;;;;;;4956911;28;20597;-87
2022/04/21 12:59:55;;;;;;;0.30;0.30;;;22.70;61.80;;;;;;4975321;28;20195;-86
2022/04/21 13:02:21;;;;;;;0.20;0.20;;;22.70;61.60;;;;;;4975034;28;20730;-85
2022/04/21 13:04:47;;;;;;;1.40;0.52;;;22.40;62.50;;;;;;4974137;28;20206;-87
2022/04/21 13:07:16;;;;;;;0.20;0.20;;;22.30;62.00;;;;;;4975159;28;20553;-87
2022/04/21 13:09:42;;;;;;;0.20;0.20;;;22.30;62.80;;;;;;4986260;28;20271;-87
2022/04/21 13:12:09;;;;;;;0.20;0.20;;;22.00;62.40;;;;;;4968450;28;20192;-87
2022/04/21 13:14:34;;;;;;;0.25;0.25;;;21.70;63.00;;;;;;4975175;28;20579;-87
2022/04/21 13:17:00;;;;;;;0.20;0.20;;;22.00;61.50;;;;;;4974986;28;20207;-88
2022/04/21 13:19:26;;;;;;;0.20;0.20;;;21.80;61.10;;;;;;4960124;28;20212;-88
2022/04/21 13:21:52;;;;;;;0.20;0.20;;;21.90;62.30;;;;;;4975320;28;20216;-88
2022/04/21 13:24:23;;;;;;;0.20;0.20;;;21.70;59.10;;;;;;4968652;28;20199;-88
2022/04/21 13:26:48;;;;;;;0.20;0.20;;;21.80;62.10;;;;;;4973739;28;20208;-86
2022/04/21 13:29:14;;;;;;;0.20;0.20;;;21.90;63.40;;;;;;4974001;28;20202;-87
2022/04/21 13:34:24;;;;;;;0.20;0.20;;;22.10;61.50;;;;;;4975645;28;20291;-87
2022/04/21 13:36:50;;;;;;;0.20;0.20;;;22.00;60.50;;;;;;4974364;28;20275;-87
2022/04/21 13:39:15;;;;;;;0.40;0.40;;;22.00;59.80;;;;;;4973870;28;20204;-87
2022/04/21 13:41:42;;;;;;;0.28;0.28;;;21.70;62.40;;;;;;4967060;28;20267;-86
2022/04/21 13:44:08;;;;;;;0.45;0.40;;;21.50;62.30;;;;;;4946752;29;20669;-87
2022/04/21 13:46:35;;;;;;;0.82;0.82;;;21.30;61.20;;;;;;4949436;29;20691;-88
2022/04/21 13:49:01;;;;;;;0.30;0.30;;;21.00;62.50;;;;;;4974037;28;20192;-88
2022/04/21 13:51:28;;;;;;;0.20;0.20;;;21.00;63.10;;;;;;4958561;28;20196;-87